Damme, Belgium
Current Conditions -  °F | °C
As of 11:25 AM on Friday 24 Oct 2014 (Local Time) from EHFS Reporting Station
Light Rain Light Rain  
Wind Chill: 54°   Ceiling: 700
Heat Index: 54°   Visibility: 1.8mi
Dew Point: 54°   Wind: 23mph
Humidity: 100%   Direction: 180°S
Pressure: 30.03"   Gusts: NA
Location:  51.25°N, 3.28°E
Report Text: EHFS 240925Z AUTO 18020KT 3000 -RA FEW004/// SCT005///BKN007/// 12/12 Q1017
Loading
Personal Weather Stations






























Interactive Weather Map
Tropical Storm Tracking
New forecast layout! Learn more

10-Day Weather Forecast

Advertisements
Track Severe Weather on mobile